sensor_id;sensor_type;location;lat;lon;timestamp;P1;durP1;ratioP1;P2;durP2;ratioP2
43835;SDS011;39345;43.964;25.340;2022-12-19T00:01:25;30.50;;;14.98;;
43835;SDS011;39345;43.964;25.340;2022-12-19T00:03:56;28.67;;;14.07;;
43835;SDS011;39345;43.964;25.340;2022-12-19T00:06:24;30.50;;;14.27;;
43835;SDS011;39345;43.964;25.340;2022-12-19T00:08:52;28.95;;;13.75;;
43835;SDS011;39345;43.964;25.340;2022-12-19T00:11:21;28.83;;;14.38;;
43835;SDS011;39345;43.964;25.340;2022-12-19T00:13:48;30.27;;;15.00;;
43835;SDS011;39345;43.964;25.340;2022-12-19T00:16:17;29.10;;;13.68;;
43835;SDS011;39345;43.964;25.340;2022-12-19T00:18:45;31.60;;;14.63;;
43835;SDS011;39345;43.964;25.340;2022-12-19T00:21:16;28.92;;;13.98;;
43835;SDS011;39345;43.964;25.340;2022-12-19T00:23:43;28.40;;;14.43;;
43835;SDS011;39345;43.964;25.340;2022-12-19T00:26:30;29.83;;;13.88;;
43835;SDS011;39345;43.964;25.340;2022-12-19T00:28:59;30.45;;;14.65;;
43835;SDS011;39345;43.964;25.340;2022-12-19T00:31:29;32.42;;;14.70;;
43835;SDS011;39345;43.964;25.340;2022-12-19T00:33:56;30.67;;;14.65;;
43835;SDS011;39345;43.964;25.340;2022-12-19T00:36:25;33.47;;;15.52;;
43835;SDS011;39345;43.964;25.340;2022-12-19T00:38:53;32.60;;;14.27;;
43835;SDS011;39345;43.964;25.340;2022-12-19T00:41:28;32.22;;;14.38;;
43835;SDS011;39345;43.964;25.340;2022-12-19T00:43:57;30.02;;;14.05;;
43835;SDS011;39345;43.964;25.340;2022-12-19T00:46:25;31.85;;;14.77;;
43835;SDS011;39345;43.964;25.340;2022-12-19T00:48:52;30.35;;;14.32;;
43835;SDS011;39345;43.964;25.340;2022-12-19T00:51:22;30.75;;;14.18;;
43835;SDS011;39345;43.964;25.340;2022-12-19T00:53:50;29.88;;;13.10;;
43835;SDS011;39345;43.964;25.340;2022-12-19T00:56:20;33.47;;;15.40;;
43835;SDS011;39345;43.964;25.340;2022-12-19T00:58:48;31.75;;;15.73;;
43835;SDS011;39345;43.964;25.340;2022-12-19T01:01:16;30.83;;;14.30;;
43835;SDS011;39345;43.964;25.340;2022-12-19T01:03:44;33.13;;;14.63;;
43835;SDS011;39345;43.964;25.340;2022-12-19T01:06:32;28.15;;;13.90;;
43835;SDS011;39345;43.964;25.340;2022-12-19T01:09:00;29.88;;;13.88;;
43835;SDS011;39345;43.964;25.340;2022-12-19T01:11:27;29.42;;;14.15;;
43835;SDS011;39345;43.964;25.340;2022-12-19T01:14:13;30.25;;;15.25;;
43835;SDS011;39345;43.964;25.340;2022-12-19T01:16:48;31.20;;;15.48;;
43835;SDS011;39345;43.964;25.340;2022-12-19T01:19:17;35.08;;;15.80;;
43835;SDS011;39345;43.964;25.340;2022-12-19T01:21:44;29.15;;;14.55;;
43835;SDS011;39345;43.964;25.340;2022-12-19T01:24:12;30.25;;;14.13;;
43835;SDS011;39345;43.964;25.340;2022-12-19T01:26:47;32.75;;;14.98;;
43835;SDS011;39345;43.964;25.340;2022-12-19T01:29:15;32.78;;;15.32;;
43835;SDS011;39345;43.964;25.340;2022-12-19T01:31:42;34.50;;;14.50;;
43835;SDS011;39345;43.964;25.340;2022-12-19T01:34:10;33.13;;;14.63;;
43835;SDS011;39345;43.964;25.340;2022-12-19T01:36:39;33.03;;;14.23;;
43835;SDS011;39345;43.964;25.340;2022-12-19T01:39:06;31.05;;;14.27;;
43835;SDS011;39345;43.964;25.340;2022-12-19T01:41:34;33.03;;;14.80;;
43835;SDS011;39345;43.964;25.340;2022-12-19T01:44:03;29.63;;;13.40;;
43835;SDS011;39345;43.964;25.340;2022-12-19T01:46:38;30.08;;;14.63;;
43835;SDS011;39345;43.964;25.340;2022-12-19T01:49:14;34.13;;;14.52;;
43835;SDS011;39345;43.964;25.340;2022-12-19T01:51:46;34.67;;;15.02;;
43835;SDS011;39345;43.964;25.340;2022-12-19T01:54:16;34.80;;;15.98;;
43835;SDS011;39345;43.964;25.340;2022-12-19T01:56:46;38.15;;;16.17;;
43835;SDS011;39345;43.964;25.340;2022-12-19T01:59:17;34.65;;;15.93;;
43835;SDS011;39345;43.964;25.340;2022-12-19T02:01:45;34.53;;;15.60;;
43835;SDS011;39345;43.964;25.340;2022-12-19T02:04:20;34.95;;;15.57;;
43835;SDS011;39345;43.964;25.340;2022-12-19T02:06:50;34.42;;;14.57;;
43835;SDS011;39345;43.964;25.340;2022-12-19T02:09:18;36.90;;;16.08;;
43835;SDS011;39345;43.964;25.340;2022-12-19T02:11:45;36.15;;;16.08;;
43835;SDS011;39345;43.964;25.340;2022-12-19T02:14:13;34.05;;;15.05;;
43835;SDS011;39345;43.964;25.340;2022-12-19T02:27:13;38.88;;;16.52;;
43835;SDS011;39345;43.964;25.340;2022-12-19T02:35:01;40.95;;;17.00;;
43835;SDS011;39345;43.964;25.340;2022-12-19T02:37:36;39.38;;;16.95;;
43835;SDS011;39345;43.964;25.340;2022-12-19T02:40:15;41.38;;;17.58;;
43835;SDS011;39345;43.964;25.340;2022-12-19T02:42:47;38.13;;;17.75;;
43835;SDS011;39345;43.964;25.340;2022-12-19T02:45:18;39.33;;;16.58;;
43835;SDS011;39345;43.964;25.340;2022-12-19T02:47:54;40.35;;;17.17;;
43835;SDS011;39345;43.964;25.340;2022-12-19T02:50:24;39.08;;;16.30;;
43835;SDS011;39345;43.964;25.340;2022-12-19T02:52:52;41.08;;;16.48;;
43835;SDS011;39345;43.964;25.340;2022-12-19T02:55:21;39.60;;;17.00;;
43835;SDS011;39345;43.964;25.340;2022-12-19T03:00:22;42.90;;;17.52;;
43835;SDS011;39345;43.964;25.340;2022-12-19T03:07:55;37.22;;;14.05;;
43835;SDS011;39345;43.964;25.340;2022-12-19T03:10:38;37.55;;;15.80;;
43835;SDS011;39345;43.964;25.340;2022-12-19T03:15:41;40.15;;;15.50;;
43835;SDS011;39345;43.964;25.340;2022-12-19T03:18:09;38.47;;;16.17;;
43835;SDS011;39345;43.964;25.340;2022-12-19T03:20:45;39.13;;;16.65;;
43835;SDS011;39345;43.964;25.340;2022-12-19T03:23:14;41.25;;;15.60;;
43835;SDS011;39345;43.964;25.340;2022-12-19T03:25:43;40.30;;;16.10;;
43835;SDS011;39345;43.964;25.340;2022-12-19T03:28:14;36.85;;;16.08;;
43835;SDS011;39345;43.964;25.340;2022-12-19T03:30:44;49.13;;;17.67;;
43835;SDS011;39345;43.964;25.340;2022-12-19T03:33:12;33.95;;;14.30;;
43835;SDS011;39345;43.964;25.340;2022-12-19T03:35:42;38.90;;;15.90;;
43835;SDS011;39345;43.964;25.340;2022-12-19T03:38:10;40.97;;;15.50;;
43835;SDS011;39345;43.964;25.340;2022-12-19T03:40:40;40.10;;;13.60;;
43835;SDS011;39345;43.964;25.340;2022-12-19T03:43:10;40.97;;;15.32;;
43835;SDS011;39345;43.964;25.340;2022-12-19T03:48:07;43.55;;;16.92;;
43835;SDS011;39345;43.964;25.340;2022-12-19T03:50:47;36.45;;;15.35;;
43835;SDS011;39345;43.964;25.340;2022-12-19T03:53:30;42.05;;;16.42;;
43835;SDS011;39345;43.964;25.340;2022-12-19T03:56:04;46.25;;;17.83;;
43835;SDS011;39345;43.964;25.340;2022-12-19T03:58:37;46.58;;;17.55;;
43835;SDS011;39345;43.964;25.340;2022-12-19T04:01:05;42.58;;;17.50;;
43835;SDS011;39345;43.964;25.340;2022-12-19T04:03:33;39.22;;;16.20;;
43835;SDS011;39345;43.964;25.340;2022-12-19T04:06:00;38.10;;;16.30;;
43835;SDS011;39345;43.964;25.340;2022-12-19T04:08:29;40.35;;;15.88;;
43835;SDS011;39345;43.964;25.340;2022-12-19T04:10:58;36.85;;;14.50;;
43835;SDS011;39345;43.964;25.340;2022-12-19T04:13:37;42.50;;;15.43;;
43835;SDS011;39345;43.964;25.340;2022-12-19T04:18:33;40.63;;;16.17;;
43835;SDS011;39345;43.964;25.340;2022-12-19T04:21:10;41.30;;;15.80;;
43835;SDS011;39345;43.964;25.340;2022-12-19T04:23:41;37.65;;;14.70;;
43835;SDS011;39345;43.964;25.340;2022-12-19T04:26:11;38.80;;;15.07;;
43835;SDS011;39345;43.964;25.340;2022-12-19T04:28:46;40.25;;;17.08;;
43835;SDS011;39345;43.964;25.340;2022-12-19T04:31:14;42.85;;;17.23;;
43835;SDS011;39345;43.964;25.340;2022-12-19T04:33:42;44.70;;;17.42;;
43835;SDS011;39345;43.964;25.340;2022-12-19T04:36:10;43.05;;;17.98;;
43835;SDS011;39345;43.964;25.340;2022-12-19T04:38:37;45.80;;;18.45;;
43835;SDS011;39345;43.964;25.340;2022-12-19T04:41:05;41.15;;;16.85;;
43835;SDS011;39345;43.964;25.340;2022-12-19T04:43:32;40.65;;;16.55;;
43835;SDS011;39345;43.964;25.340;2022-12-19T04:46:00;39.63;;;16.95;;
43835;SDS011;39345;43.964;25.340;2022-12-19T04:48:27;38.60;;;16.65;;
43835;SDS011;39345;43.964;25.340;2022-12-19T04:50:55;37.30;;;14.90;;
43835;SDS011;39345;43.964;25.340;2022-12-19T04:53:22;40.83;;;15.95;;
43835;SDS011;39345;43.964;25.340;2022-12-19T04:55:50;43.00;;;16.08;;
43835;SDS011;39345;43.964;25.340;2022-12-19T04:58:17;37.17;;;15.20;;
43835;SDS011;39345;43.964;25.340;2022-12-19T05:00:47;40.55;;;16.15;;
43835;SDS011;39345;43.964;25.340;2022-12-19T05:03:14;36.42;;;14.35;;
43835;SDS011;39345;43.964;25.340;2022-12-19T05:05:42;40.53;;;15.85;;
43835;SDS011;39345;43.964;25.340;2022-12-19T05:08:10;40.65;;;18.45;;
43835;SDS011;39345;43.964;25.340;2022-12-19T05:10:38;32.17;;;14.27;;
43835;SDS011;39345;43.964;25.340;2022-12-19T05:13:07;26.23;;;12.40;;
43835;SDS011;39345;43.964;25.340;2022-12-19T05:15:34;28.98;;;13.98;;
43835;SDS011;39345;43.964;25.340;2022-12-19T05:18:02;31.35;;;14.10;;
43835;SDS011;39345;43.964;25.340;2022-12-19T05:20:29;25.48;;;11.57;;
43835;SDS011;39345;43.964;25.340;2022-12-19T05:22:57;29.83;;;12.25;;
43835;SDS011;39345;43.964;25.340;2022-12-19T05:25:30;29.70;;;12.00;;
43835;SDS011;39345;43.964;25.340;2022-12-19T05:28:00;26.38;;;11.73;;
43835;SDS011;39345;43.964;25.340;2022-12-19T05:30:28;27.98;;;12.98;;
43835;SDS011;39345;43.964;25.340;2022-12-19T05:32:55;28.92;;;12.48;;
43835;SDS011;39345;43.964;25.340;2022-12-19T05:35:23;30.52;;;13.88;;
43835;SDS011;39345;43.964;25.340;2022-12-19T05:37:50;28.55;;;12.63;;
43835;SDS011;39345;43.964;25.340;2022-12-19T05:40:18;34.97;;;14.50;;
43835;SDS011;39345;43.964;25.340;2022-12-19T05:42:45;28.80;;;13.30;;
43835;SDS011;39345;43.964;25.340;2022-12-19T05:45:13;32.47;;;14.07;;
43835;SDS011;39345;43.964;25.340;2022-12-19T05:47:40;30.00;;;11.80;;
43835;SDS011;39345;43.964;25.340;2022-12-19T05:50:09;35.40;;;14.95;;
43835;SDS011;39345;43.964;25.340;2022-12-19T05:52:36;35.08;;;14.15;;
43835;SDS011;39345;43.964;25.340;2022-12-19T05:55:04;41.92;;;15.80;;
43835;SDS011;39345;43.964;25.340;2022-12-19T05:57:32;34.50;;;14.30;;
43835;SDS011;39345;43.964;25.340;2022-12-19T05:59:59;38.80;;;16.52;;
43835;SDS011;39345;43.964;25.340;2022-12-19T06:02:27;38.90;;;14.80;;
43835;SDS011;39345;43.964;25.340;2022-12-19T06:04:58;33.25;;;14.30;;
43835;SDS011;39345;43.964;25.340;2022-12-19T06:07:26;34.72;;;14.73;;
43835;SDS011;39345;43.964;25.340;2022-12-19T06:09:53;36.25;;;14.95;;
43835;SDS011;39345;43.964;25.340;2022-12-19T06:12:21;26.70;;;13.20;;
43835;SDS011;39345;43.964;25.340;2022-12-19T06:14:48;29.17;;;13.13;;
43835;SDS011;39345;43.964;25.340;2022-12-19T06:17:16;26.25;;;12.30;;
43835;SDS011;39345;43.964;25.340;2022-12-19T06:19:43;26.02;;;11.98;;
43835;SDS011;39345;43.964;25.340;2022-12-19T06:22:10;33.70;;;13.95;;
43835;SDS011;39345;43.964;25.340;2022-12-19T06:24:38;31.08;;;12.77;;
43835;SDS011;39345;43.964;25.340;2022-12-19T06:27:05;28.70;;;12.93;;
43835;SDS011;39345;43.964;25.340;2022-12-19T06:29:33;26.77;;;11.40;;
43835;SDS011;39345;43.964;25.340;2022-12-19T06:32:00;32.35;;;13.65;;
43835;SDS011;39345;43.964;25.340;2022-12-19T06:34:28;30.48;;;11.38;;
43835;SDS011;39345;43.964;25.340;2022-12-19T06:37:15;29.15;;;12.40;;
43835;SDS011;39345;43.964;25.340;2022-12-19T06:39:43;34.47;;;14.52;;
43835;SDS011;39345;43.964;25.340;2022-12-19T06:42:10;31.25;;;13.00;;
43835;SDS011;39345;43.964;25.340;2022-12-19T06:44:50;28.27;;;13.43;;
43835;SDS011;39345;43.964;25.340;2022-12-19T06:47:19;34.28;;;14.55;;
43835;SDS011;39345;43.964;25.340;2022-12-19T06:49:47;29.15;;;13.25;;
43835;SDS011;39345;43.964;25.340;2022-12-19T06:52:15;30.17;;;13.35;;
43835;SDS011;39345;43.964;25.340;2022-12-19T06:54:43;27.33;;;13.85;;
43835;SDS011;39345;43.964;25.340;2022-12-19T06:57:11;31.70;;;12.93;;
43835;SDS011;39345;43.964;25.340;2022-12-19T06:59:38;32.20;;;14.27;;
43835;SDS011;39345;43.964;25.340;2022-12-19T07:02:12;30.63;;;13.82;;
43835;SDS011;39345;43.964;25.340;2022-12-19T07:04:47;26.67;;;12.52;;
43835;SDS011;39345;43.964;25.340;2022-12-19T07:07:16;30.33;;;13.32;;
43835;SDS011;39345;43.964;25.340;2022-12-19T07:09:43;28.38;;;13.27;;
43835;SDS011;39345;43.964;25.340;2022-12-19T07:12:11;26.50;;;12.85;;
43835;SDS011;39345;43.964;25.340;2022-12-19T07:14:38;23.63;;;11.73;;
43835;SDS011;39345;43.964;25.340;2022-12-19T07:17:06;23.60;;;9.65;;
43835;SDS011;39345;43.964;25.340;2022-12-19T07:19:33;32.65;;;15.52;;
43835;SDS011;39345;43.964;25.340;2022-12-19T07:22:01;30.90;;;14.35;;
43835;SDS011;39345;43.964;25.340;2022-12-19T07:24:29;28.33;;;12.30;;
43835;SDS011;39345;43.964;25.340;2022-12-19T07:26:57;29.85;;;13.43;;
43835;SDS011;39345;43.964;25.340;2022-12-19T07:29:24;20.55;;;10.52;;
43835;SDS011;39345;43.964;25.340;2022-12-19T07:31:52;26.95;;;11.77;;
43835;SDS011;39345;43.964;25.340;2022-12-19T07:34:19;29.33;;;11.68;;
43835;SDS011;39345;43.964;25.340;2022-12-19T07:36:47;27.38;;;13.73;;
43835;SDS011;39345;43.964;25.340;2022-12-19T07:39:14;26.92;;;12.13;;
43835;SDS011;39345;43.964;25.340;2022-12-19T07:41:42;30.05;;;14.38;;
43835;SDS011;39345;43.964;25.340;2022-12-19T07:44:10;25.25;;;12.07;;
43835;SDS011;39345;43.964;25.340;2022-12-19T07:46:38;30.00;;;14.05;;
43835;SDS011;39345;43.964;25.340;2022-12-19T07:49:06;26.27;;;11.30;;
43835;SDS011;39345;43.964;25.340;2022-12-19T07:51:33;24.73;;;11.73;;
43835;SDS011;39345;43.964;25.340;2022-12-19T07:54:01;26.83;;;12.32;;
43835;SDS011;39345;43.964;25.340;2022-12-19T07:56:29;29.30;;;14.75;;
43835;SDS011;39345;43.964;25.340;2022-12-19T07:58:57;31.65;;;13.27;;
43835;SDS011;39345;43.964;25.340;2022-12-19T08:01:24;30.77;;;13.45;;
43835;SDS011;39345;43.964;25.340;2022-12-19T08:03:55;25.50;;;11.95;;
43835;SDS011;39345;43.964;25.340;2022-12-19T08:06:22;30.23;;;13.68;;
43835;SDS011;39345;43.964;25.340;2022-12-19T08:08:50;25.85;;;12.48;;
43835;SDS011;39345;43.964;25.340;2022-12-19T08:11:18;28.48;;;13.40;;
43835;SDS011;39345;43.964;25.340;2022-12-19T08:13:52;26.75;;;12.68;;
43835;SDS011;39345;43.964;25.340;2022-12-19T08:16:20;25.70;;;12.68;;
43835;SDS011;39345;43.964;25.340;2022-12-19T08:18:47;27.75;;;13.27;;
43835;SDS011;39345;43.964;25.340;2022-12-19T08:21:15;27.08;;;12.80;;
43835;SDS011;39345;43.964;25.340;2022-12-19T08:23:42;26.92;;;12.57;;
43835;SDS011;39345;43.964;25.340;2022-12-19T08:26:12;25.33;;;11.35;;
43835;SDS011;39345;43.964;25.340;2022-12-19T08:28:40;29.08;;;13.07;;
43835;SDS011;39345;43.964;25.340;2022-12-19T08:31:12;30.58;;;15.63;;
43835;SDS011;39345;43.964;25.340;2022-12-19T08:33:40;29.67;;;14.15;;
43835;SDS011;39345;43.964;25.340;2022-12-19T08:36:12;30.73;;;13.68;;
43835;SDS011;39345;43.964;25.340;2022-12-19T08:38:39;28.90;;;14.20;;
43835;SDS011;39345;43.964;25.340;2022-12-19T08:41:07;27.25;;;12.63;;
43835;SDS011;39345;43.964;25.340;2022-12-19T08:43:35;30.35;;;13.90;;
43835;SDS011;39345;43.964;25.340;2022-12-19T08:46:04;28.60;;;13.93;;
43835;SDS011;39345;43.964;25.340;2022-12-19T08:48:32;31.50;;;13.40;;
43835;SDS011;39345;43.964;25.340;2022-12-19T08:51:03;32.17;;;14.85;;
43835;SDS011;39345;43.964;25.340;2022-12-19T08:53:32;19.92;;;10.25;;
43835;SDS011;39345;43.964;25.340;2022-12-19T08:56:01;24.25;;;11.80;;
43835;SDS011;39345;43.964;25.340;2022-12-19T08:58:29;27.60;;;14.05;;
43835;SDS011;39345;43.964;25.340;2022-12-19T09:01:00;30.77;;;14.05;;
43835;SDS011;39345;43.964;25.340;2022-12-19T09:03:31;22.30;;;12.25;;
43835;SDS011;39345;43.964;25.340;2022-12-19T09:06:18;27.60;;;13.73;;
43835;SDS011;39345;43.964;25.340;2022-12-19T09:08:47;30.42;;;14.48;;
43835;SDS011;39345;43.964;25.340;2022-12-19T09:11:15;28.58;;;14.13;;
43835;SDS011;39345;43.964;25.340;2022-12-19T09:13:43;29.15;;;13.63;;
43835;SDS011;39345;43.964;25.340;2022-12-19T09:16:18;30.95;;;13.70;;
43835;SDS011;39345;43.964;25.340;2022-12-19T09:21:14;26.88;;;13.07;;
43835;SDS011;39345;43.964;25.340;2022-12-19T09:23:42;30.40;;;14.52;;
43835;SDS011;39345;43.964;25.340;2022-12-19T09:26:12;28.00;;;13.00;;
43835;SDS011;39345;43.964;25.340;2022-12-19T09:28:39;30.70;;;14.48;;
43835;SDS011;39345;43.964;25.340;2022-12-19T09:31:09;28.48;;;12.73;;
43835;SDS011;39345;43.964;25.340;2022-12-19T09:33:37;33.35;;;14.65;;
43835;SDS011;39345;43.964;25.340;2022-12-19T09:36:16;32.70;;;14.90;;
43835;SDS011;39345;43.964;25.340;2022-12-19T09:38:44;32.22;;;13.68;;
43835;SDS011;39345;43.964;25.340;2022-12-19T09:48:44;27.40;;;13.75;;
43835;SDS011;39345;43.964;25.340;2022-12-19T09:53:58;26.83;;;12.68;;
43835;SDS011;39345;43.964;25.340;2022-12-19T09:56:29;29.27;;;13.50;;
43835;SDS011;39345;43.964;25.340;2022-12-19T10:01:58;30.15;;;13.80;;
43835;SDS011;39345;43.964;25.340;2022-12-19T10:04:28;31.20;;;14.98;;
43835;SDS011;39345;43.964;25.340;2022-12-19T10:06:56;31.45;;;16.38;;
43835;SDS011;39345;43.964;25.340;2022-12-19T10:09:44;32.42;;;15.98;;
43835;SDS011;39345;43.964;25.340;2022-12-19T10:12:40;32.05;;;16.23;;
43835;SDS011;39345;43.964;25.340;2022-12-19T10:18:16;32.63;;;16.02;;
43835;SDS011;39345;43.964;25.340;2022-12-19T10:21:03;29.65;;;14.85;;
43835;SDS011;39345;43.964;25.340;2022-12-19T10:23:48;33.60;;;16.45;;
43835;SDS011;39345;43.964;25.340;2022-12-19T10:26:19;27.13;;;14.20;;
43835;SDS011;39345;43.964;25.340;2022-12-19T10:28:55;27.60;;;12.85;;
43835;SDS011;39345;43.964;25.340;2022-12-19T10:36:24;37.15;;;16.02;;
43835;SDS011;39345;43.964;25.340;2022-12-19T10:39:15;31.80;;;15.18;;
43835;SDS011;39345;43.964;25.340;2022-12-19T10:41:47;32.28;;;14.75;;
43835;SDS011;39345;43.964;25.340;2022-12-19T10:44:17;34.95;;;16.88;;
43835;SDS011;39345;43.964;25.340;2022-12-19T10:46:46;30.05;;;14.05;;
43835;SDS011;39345;43.964;25.340;2022-12-19T10:49:16;34.17;;;14.45;;
43835;SDS011;39345;43.964;25.340;2022-12-19T10:51:57;36.20;;;15.75;;
43835;SDS011;39345;43.964;25.340;2022-12-19T10:54:35;29.08;;;13.85;;
43835;SDS011;39345;43.964;25.340;2022-12-19T11:02:42;27.80;;;14.68;;
43835;SDS011;39345;43.964;25.340;2022-12-19T11:05:24;26.63;;;13.23;;
43835;SDS011;39345;43.964;25.340;2022-12-19T11:16:20;33.03;;;15.20;;
43835;SDS011;39345;43.964;25.340;2022-12-19T11:19:18;35.88;;;16.67;;
43835;SDS011;39345;43.964;25.340;2022-12-19T11:22:27;31.13;;;14.43;;
43835;SDS011;39345;43.964;25.340;2022-12-19T11:25:14;34.97;;;15.43;;
43835;SDS011;39345;43.964;25.340;2022-12-19T11:28:03;37.28;;;16.02;;
43835;SDS011;39345;43.964;25.340;2022-12-19T11:33:54;40.00;;;19.20;;
43835;SDS011;39345;43.964;25.340;2022-12-19T11:38:59;31.23;;;13.80;;
43835;SDS011;39345;43.964;25.340;2022-12-19T11:41:36;34.38;;;16.05;;
43835;SDS011;39345;43.964;25.340;2022-12-19T11:46:44;29.88;;;14.05;;
43835;SDS011;39345;43.964;25.340;2022-12-19T11:56:44;32.95;;;14.93;;
43835;SDS011;39345;43.964;25.340;2022-12-19T12:01:51;30.70;;;14.70;;
43835;SDS011;39345;43.964;25.340;2022-12-19T12:04:31;31.55;;;15.32;;
43835;SDS011;39345;43.964;25.340;2022-12-19T12:07:04;32.60;;;14.00;;
43835;SDS011;39345;43.964;25.340;2022-12-19T12:09:57;29.40;;;13.15;;
43835;SDS011;39345;43.964;25.340;2022-12-19T12:21:36;32.00;;;15.57;;
43835;SDS011;39345;43.964;25.340;2022-12-19T12:30:16;36.00;;;17.90;;
43835;SDS011;39345;43.964;25.340;2022-12-19T12:36:15;28.85;;;13.63;;
43835;SDS011;39345;43.964;25.340;2022-12-19T12:44:45;32.55;;;14.82;;
43835;SDS011;39345;43.964;25.340;2022-12-19T12:50:15;30.45;;;14.38;;
43835;SDS011;39345;43.964;25.340;2022-12-19T12:52:37;30.58;;;14.90;;
43835;SDS011;39345;43.964;25.340;2022-12-19T12:55:11;30.98;;;15.15;;
43835;SDS011;39345;43.964;25.340;2022-12-19T13:02:43;31.40;;;14.25;;
43835;SDS011;39345;43.964;25.340;2022-12-19T13:06:03;30.42;;;14.55;;
43835;SDS011;39345;43.964;25.340;2022-12-19T13:08:22;32.10;;;16.38;;
43835;SDS011;39345;43.964;25.340;2022-12-19T13:10:52;31.40;;;15.02;;
43835;SDS011;39345;43.964;25.340;2022-12-19T13:13:20;28.00;;;15.00;;
43835;SDS011;39345;43.964;25.340;2022-12-19T13:19:12;31.95;;;14.23;;
43835;SDS011;39345;43.964;25.340;2022-12-19T13:22:13;31.88;;;12.95;;
43835;SDS011;39345;43.964;25.340;2022-12-19T13:24:54;37.50;;;17.00;;
43835;SDS011;39345;43.964;25.340;2022-12-19T13:33:06;35.67;;;15.18;;
43835;SDS011;39345;43.964;25.340;2022-12-19T13:41:02;42.38;;;21.98;;
43835;SDS011;39345;43.964;25.340;2022-12-19T13:43:50;45.55;;;24.13;;
43835;SDS011;39345;43.964;25.340;2022-12-19T13:46:42;42.38;;;22.15;;
43835;SDS011;39345;43.964;25.340;2022-12-19T13:51:53;33.28;;;16.63;;
43835;SDS011;39345;43.964;25.340;2022-12-19T13:54:27;34.75;;;16.25;;
43835;SDS011;39345;43.964;25.340;2022-12-19T13:56:57;39.17;;;18.40;;
43835;SDS011;39345;43.964;25.340;2022-12-19T13:59:35;40.40;;;19.98;;
43835;SDS011;39345;43.964;25.340;2022-12-19T14:02:14;37.22;;;18.45;;
43835;SDS011;39345;43.964;25.340;2022-12-19T14:04:43;35.17;;;16.45;;
43835;SDS011;39345;43.964;25.340;2022-12-19T14:10:13;36.28;;;18.75;;
43835;SDS011;39345;43.964;25.340;2022-12-19T14:13:03;38.58;;;17.85;;
43835;SDS011;39345;43.964;25.340;2022-12-19T14:16:14;33.25;;;16.92;;
43835;SDS011;39345;43.964;25.340;2022-12-19T14:18:46;35.13;;;16.52;;
43835;SDS011;39345;43.964;25.340;2022-12-19T14:24:10;37.28;;;16.55;;
43835;SDS011;39345;43.964;25.340;2022-12-19T14:26:37;38.40;;;17.52;;
43835;SDS011;39345;43.964;25.340;2022-12-19T14:29:27;39.15;;;19.30;;
43835;SDS011;39345;43.964;25.340;2022-12-19T14:32:15;38.03;;;18.38;;
43835;SDS011;39345;43.964;25.340;2022-12-19T14:35:05;37.40;;;17.17;;
43835;SDS011;39345;43.964;25.340;2022-12-19T14:38:01;35.63;;;17.48;;
43835;SDS011;39345;43.964;25.340;2022-12-19T14:40:48;37.50;;;18.02;;
43835;SDS011;39345;43.964;25.340;2022-12-19T14:43:35;44.83;;;19.65;;
43835;SDS011;39345;43.964;25.340;2022-12-19T14:46:27;46.28;;;22.95;;
43835;SDS011;39345;43.964;25.340;2022-12-19T14:49:31;44.58;;;20.10;;
43835;SDS011;39345;43.964;25.340;2022-12-19T14:58:07;35.13;;;15.82;;
43835;SDS011;39345;43.964;25.340;2022-12-19T15:00:55;42.67;;;19.38;;
43835;SDS011;39345;43.964;25.340;2022-12-19T15:03:38;45.55;;;21.10;;
43835;SDS011;39345;43.964;25.340;2022-12-19T15:06:13;65.68;;;26.52;;
43835;SDS011;39345;43.964;25.340;2022-12-19T15:09:02;62.58;;;25.85;;
43835;SDS011;39345;43.964;25.340;2022-12-19T15:11:54;61.28;;;26.52;;
43835;SDS011;39345;43.964;25.340;2022-12-19T15:15:14;41.17;;;18.73;;
43835;SDS011;39345;43.964;25.340;2022-12-19T15:17:44;43.75;;;18.13;;
43835;SDS011;39345;43.964;25.340;2022-12-19T15:20:12;51.08;;;21.65;;
43835;SDS011;39345;43.964;25.340;2022-12-19T15:22:40;47.30;;;21.98;;
43835;SDS011;39345;43.964;25.340;2022-12-19T15:25:11;48.92;;;20.67;;
43835;SDS011;39345;43.964;25.340;2022-12-19T15:27:59;39.10;;;18.27;;
43835;SDS011;39345;43.964;25.340;2022-12-19T15:30:26;38.75;;;17.15;;
43835;SDS011;39345;43.964;25.340;2022-12-19T15:32:55;48.08;;;22.23;;
43835;SDS011;39345;43.964;25.340;2022-12-19T15:35:23;51.78;;;23.25;;
43835;SDS011;39345;43.964;25.340;2022-12-19T15:37:50;43.10;;;20.98;;
43835;SDS011;39345;43.964;25.340;2022-12-19T15:40:18;45.97;;;22.35;;
43835;SDS011;39345;43.964;25.340;2022-12-19T15:42:46;40.63;;;21.02;;
43835;SDS011;39345;43.964;25.340;2022-12-19T15:45:16;42.20;;;19.42;;
43835;SDS011;39345;43.964;25.340;2022-12-19T15:47:47;42.35;;;19.85;;
43835;SDS011;39345;43.964;25.340;2022-12-19T15:50:16;43.63;;;20.05;;
43835;SDS011;39345;43.964;25.340;2022-12-19T15:52:44;50.45;;;22.23;;
43835;SDS011;39345;43.964;25.340;2022-12-19T15:55:16;50.38;;;23.65;;
43835;SDS011;39345;43.964;25.340;2022-12-19T15:57:48;46.75;;;20.52;;
43835;SDS011;39345;43.964;25.340;2022-12-19T16:00:22;43.65;;;19.63;;
43835;SDS011;39345;43.964;25.340;2022-12-19T16:02:50;42.03;;;19.65;;
43835;SDS011;39345;43.964;25.340;2022-12-19T16:05:38;40.53;;;19.05;;
43835;SDS011;39345;43.964;25.340;2022-12-19T16:08:09;43.47;;;18.92;;
43835;SDS011;39345;43.964;25.340;2022-12-19T16:10:38;43.13;;;19.77;;
43835;SDS011;39345;43.964;25.340;2022-12-19T16:13:05;41.63;;;17.63;;
43835;SDS011;39345;43.964;25.340;2022-12-19T16:15:33;45.65;;;19.15;;
43835;SDS011;39345;43.964;25.340;2022-12-19T16:18:01;39.97;;;18.52;;
43835;SDS011;39345;43.964;25.340;2022-12-19T16:20:33;48.60;;;20.98;;
43835;SDS011;39345;43.964;25.340;2022-12-19T16:23:05;48.45;;;23.02;;
43835;SDS011;39345;43.964;25.340;2022-12-19T16:25:40;51.70;;;23.73;;
43835;SDS011;39345;43.964;25.340;2022-12-19T16:28:14;56.77;;;28.27;;
43835;SDS011;39345;43.964;25.340;2022-12-19T16:30:43;56.70;;;26.80;;
43835;SDS011;39345;43.964;25.340;2022-12-19T16:33:18;52.10;;;24.02;;
43835;SDS011;39345;43.964;25.340;2022-12-19T16:38:29;47.25;;;20.30;;
43835;SDS011;39345;43.964;25.340;2022-12-19T16:40:57;46.88;;;20.27;;
43835;SDS011;39345;43.964;25.340;2022-12-19T16:43:35;46.95;;;21.73;;
43835;SDS011;39345;43.964;25.340;2022-12-19T16:46:03;43.42;;;19.85;;
43835;SDS011;39345;43.964;25.340;2022-12-19T16:48:31;46.65;;;20.73;;
43835;SDS011;39345;43.964;25.340;2022-12-19T16:51:01;51.92;;;22.23;;
43835;SDS011;39345;43.964;25.340;2022-12-19T16:53:28;51.03;;;21.67;;
43835;SDS011;39345;43.964;25.340;2022-12-19T16:55:56;59.45;;;24.33;;
43835;SDS011;39345;43.964;25.340;2022-12-19T16:58:26;66.40;;;26.80;;
43835;SDS011;39345;43.964;25.340;2022-12-19T17:00:54;55.15;;;25.52;;
43835;SDS011;39345;43.964;25.340;2022-12-19T17:03:38;46.70;;;22.33;;
43835;SDS011;39345;43.964;25.340;2022-12-19T17:06:10;44.92;;;20.75;;
43835;SDS011;39345;43.964;25.340;2022-12-19T17:08:37;46.35;;;20.92;;